Time,TemperatureF,DewpointF,PressureIn,WindDirection,WindDirectionDegrees,WindSpeedMPH,WindSpeedGustMPH,Humidity,HourlyPrecipIn,Conditions,Clouds,dailyrainin,SoftwareType,DateUTC
2013-03-04 00:02:00,9.2,7.0,30.11,WNW,302,0.0,2.0,91,0.00,,,0.00,weatherlink.com 1.10,2013-03-04 05:02:00,
2013-03-04 00:17:00,8.5,6.0,30.11,West,263,0.0,2.0,91,0.00,,,0.00,weatherlink.com 1.10,2013-03-04 05:17:00,
2013-03-04 00:32:00,8.5,6.0,30.11,West,270,1.0,3.0,91,0.00,,,0.00,weatherlink.com 1.10,2013-03-04 05:32:00,
2013-03-04 00:47:00,8.2,6.0,30.11,West,274,0.0,2.0,91,0.00,,,0.00,weatherlink.com 1.10,2013-03-04 05:47:00,
2013-03-04 01:02:00,5.4,3.0,30.11,West,269,0.0,0.0,88,0.00,,,0.00,weatherlink.com 1.10,2013-03-04 06:02:00,
2013-03-04 01:17:00,4.2,1.0,30.11,West,272,0.0,1.0,88,0.00,,,0.00,weatherlink.com 1.10,2013-03-04 06:17:00,
2013-03-04 01:32:00,3.7,1.0,30.12,West,269,0.0,1.0,89,0.00,,,0.00,weatherlink.com 1.10,2013-03-04 06:32:00,
2013-03-04 01:47:00,1.5,-2.0,30.13,WNW,284,0.0,1.0,87,0.00,,,0.00,weatherlink.com 1.10,2013-03-04 06:47:00,
2013-03-04 02:02:00,0.2,-3.0,30.12,WNW,283,0.0,0.0,88,0.00,,,0.00,weatherlink.com 1.10,2013-03-04 07:02:00,
2013-03-04 02:17:00,-0.1,-3.0,30.13,West,274,0.0,1.0,88,0.00,,,0.00,weatherlink.com 1.10,2013-03-04 07:17:00,
2013-03-04 02:33:00,-1.3,-4.0,30.13,West,274,0.0,0.0,88,0.00,,,0.00,weatherlink.com 1.10,2013-03-04 07:33:00,
2013-03-04 02:48:00,-1.7,-4.0,30.12,West,265,0.0,0.0,89,0.00,,,0.00,weatherlink.com 1.10,2013-03-04 07:48:00,
2013-03-04 03:03:00,-1.3,-4.0,30.12,West,262,0.0,1.0,89,0.00,,,0.00,weatherlink.com 1.10,2013-03-04 08:03:00,
2013-03-04 03:18:00,-2.2,-5.0,30.13,West,277,0.0,1.0,88,0.00,,,0.00,weatherlink.com 1.10,2013-03-04 08:18:00,
2013-03-04 03:33:00,-1.1,-3.0,30.13,WNW,287,0.0,1.0,90,0.00,,,0.00,weatherlink.com 1.10,2013-03-04 08:33:00,
2013-03-04 03:48:00,0.9,-1.0,30.13,WNW,295,0.0,1.0,91,0.00,,,0.00,weatherlink.com 1.10,2013-03-04 08:48:00,
2013-03-04 04:03:00,5.9,4.0,30.13,WNW,294,1.0,4.0,92,0.00,,,0.00,weatherlink.com 1.10,2013-03-04 09:03:00,
2013-03-04 04:18:00,6.9,4.0,30.13,NW,305,2.0,3.0,89,0.00,,,0.00,weatherlink.com 1.10,2013-03-04 09:18:00,
2013-03-04 04:33:00,6.6,4.0,30.13,NW,325,2.0,2.0,88,0.00,,,0.00,weatherlink.com 1.10,2013-03-04 09:33:00,
2013-03-04 04:48:00,6.3,4.0,30.14,WNW,287,0.0,3.0,88,0.00,,,0.00,weatherlink.com 1.10,2013-03-04 09:48:00,
2013-03-04 05:03:00,5.5,3.0,30.14,NNW,327,0.0,2.0,87,0.00,,,0.00,weatherlink.com 1.10,2013-03-04 10:03:00,
2013-03-04 05:18:00,5.9,3.0,30.15,WNW,302,0.0,3.0,88,0.00,,,0.00,weatherlink.com 1.10,2013-03-04 10:18:00,
2013-03-04 05:33:00,5.4,3.0,30.15,NW,316,1.0,3.0,88,0.00,,,0.00,weatherlink.com 1.10,2013-03-04 10:33:00,
2013-03-04 05:49:00,5.4,3.0,30.16,NNW,329,2.0,3.0,88,0.00,,,0.00,weatherlink.com 1.10,2013-03-04 10:49:00,
2013-03-04 06:04:00,5.6,3.0,30.16,NNW,345,0.0,3.0,87,0.00,,,0.00,weatherlink.com 1.10,2013-03-04 11:04:00,
2013-03-04 06:19:00,5.2,2.0,30.16,North,6,2.0,3.0,87,0.00,,,0.00,weatherlink.com 1.10,2013-03-04 11:19:00,
2013-03-04 06:34:00,5.1,2.0,30.17,NNW,345,0.0,4.0,87,0.00,,,0.00,weatherlink.com 1.10,2013-03-04 11:34:00,
2013-03-04 06:49:00,4.8,2.0,30.17,NW,326,1.0,4.0,87,0.00,,,0.00,weatherlink.com 1.10,2013-03-04 11:49:00,
2013-03-04 07:04:00,4.4,1.0,30.17,North,353,0.0,3.0,87,0.00,,,0.00,weatherlink.com 1.10,2013-03-04 12:04:00,
2013-03-04 07:19:00,4.4,1.0,30.17,NW,310,1.0,4.0,87,0.00,,,0.00,weatherlink.com 1.10,2013-03-04 12:19:00,
2013-03-04 07:34:00,4.3,1.0,30.17,WNW,302,1.0,2.0,87,0.00,,,0.00,weatherlink.com 1.10,2013-03-04 12:34:00,
2013-03-04 07:49:00,5.5,2.0,30.17,NW,311,2.0,4.0,85,0.00,,,0.00,weatherlink.com 1.10,2013-03-04 12:49:00,
2013-03-04 08:04:00,6.7,3.0,30.17,West,280,1.0,5.0,84,0.00,,,0.00,weatherlink.com 1.10,2013-03-04 13:04:00,
2013-03-04 08:19:00,7.6,3.0,30.18,NNW,345,1.0,4.0,82,0.00,,,0.00,weatherlink.com 1.10,2013-03-04 13:19:00,
2013-03-04 08:34:00,8.5,4.0,30.17,NNW,347,3.0,6.0,81,0.00,,,0.00,weatherlink.com 1.10,2013-03-04 13:34:00,
2013-03-04 08:49:00,9.2,4.0,30.18,NNW,333,2.0,6.0,79,0.00,,,0.00,weatherlink.com 1.10,2013-03-04 13:49:00,
2013-03-04 09:05:00,9.9,5.0,30.17,NNE,25,6.0,8.0,79,0.00,,,0.00,weatherlink.com 1.10,2013-03-04 14:05:00,
2013-03-04 09:20:00,11.0,5.0,30.17,NNW,335,1.0,6.0,77,0.00,,,0.00,weatherlink.com 1.10,2013-03-04 14:20:00,
2013-03-04 09:35:00,12.2,6.0,30.17,NE,36,0.0,4.0,76,0.00,,,0.00,weatherlink.com 1.10,2013-03-04 14:35:00,
2013-03-04 09:50:00,13.8,7.0,30.18,West,271,3.0,6.0,74,0.00,,,0.00,weatherlink.com 1.10,2013-03-04 14:50:00,
2013-03-04 10:05:00,14.0,7.0,30.18,West,267,4.0,7.0,74,0.00,,,0.00,weatherlink.com 1.10,2013-03-04 15:05:00,
2013-03-04 10:20:00,14.9,7.0,30.18,WNW,299,5.0,9.0,72,0.00,,,0.00,weatherlink.com 1.10,2013-03-04 15:20:00,
2013-03-04 10:35:00,16.2,8.0,30.18,West,278,5.0,7.0,70,0.00,,,0.00,weatherlink.com 1.10,2013-03-04 15:35:00,
2013-03-04 10:50:00,17.1,8.0,30.18,West,271,1.0,7.0,68,0.00,,,0.00,weatherlink.com 1.10,2013-03-04 15:50:00,
2013-03-04 11:05:00,18.1,8.0,30.18,NW,311,1.0,6.0,66,0.00,,,0.00,weatherlink.com 1.10,2013-03-04 16:05:00,
2013-03-04 11:20:00,19.2,9.0,30.18,WNW,283,4.0,9.0,65,0.00,,,0.00,weatherlink.com 1.10,2013-03-04 16:20:00,
2013-03-04 11:35:00,19.7,9.0,30.18,WNW,284,2.0,8.0,63,0.00,,,0.00,weatherlink.com 1.10,2013-03-04 16:35:00,
2013-03-04 11:50:00,20.2,9.0,30.17,NW,307,1.0,8.0,62,0.00,,,0.00,weatherlink.com 1.10,2013-03-04 16:50:00,
2013-03-04 12:05:00,21.2,10.0,30.17,WNW,287,11.0,11.0,61,0.00,,,0.00,weatherlink.com 1.10,2013-03-04 17:05:00,
2013-03-04 12:21:00,21.9,10.0,30.17,West,272,3.0,7.0,60,0.00,,,0.00,weatherlink.com 1.10,2013-03-04 17:21:00,
2013-03-04 12:36:00,22.6,10.0,30.17,West,259,6.0,7.0,58,0.00,,,0.00,weatherlink.com 1.10,2013-03-04 17:36:00,
2013-03-04 12:51:00,23.5,10.0,30.16,WNW,291,2.0,9.0,56,0.00,,,0.00,weatherlink.com 1.10,2013-03-04 17:51:00,
2013-03-04 13:06:00,23.9,10.0,30.16,WNW,294,4.0,8.0,55,0.00,,,0.00,weatherlink.com 1.10,2013-03-04 18:06:00,
2013-03-04 13:21:00,25.0,10.0,30.15,WNW,283,5.0,7.0,53,0.00,,,0.00,weatherlink.com 1.10,2013-03-04 18:21:00,
2013-03-04 13:36:00,25.9,10.0,30.15,WNW,300,0.0,9.0,51,0.00,,,0.00,weatherlink.com 1.10,2013-03-04 18:36:00,
2013-03-04 13:51:00,26.6,11.0,30.14,West,262,3.0,6.0,51,0.00,,,0.00,weatherlink.com 1.10,2013-03-04 18:51:00,
2013-03-04 14:06:00,26.8,9.0,30.14,WNW,300,6.0,9.0,48,0.00,,,0.00,weatherlink.com 1.10,2013-03-04 19:06:00,
2013-03-04 14:21:00,27.5,9.0,30.14,WNW,299,2.0,13.0,46,0.00,,,0.00,weatherlink.com 1.10,2013-03-04 19:21:00,
2013-03-04 14:36:00,27.8,8.0,30.14,NW,305,3.0,9.0,44,0.00,,,0.00,weatherlink.com 1.10,2013-03-04 19:36:00,
2013-03-04 14:51:00,28.0,9.0,30.14,NNW,348,5.0,7.0,44,0.00,,,0.00,weatherlink.com 1.10,2013-03-04 19:51:00,
2013-03-04 15:06:00,28.4,7.0,30.14,WNW,298,0.0,7.0,41,0.00,,,0.00,weatherlink.com 1.10,2013-03-04 20:06:00,
2013-03-04 15:21:00,29.0,8.0,30.14,NW,322,3.0,9.0,41,0.00,,,0.00,weatherlink.com 1.10,2013-03-04 20:21:00,
2013-03-04 15:36:00,28.7,6.0,30.13,North,349,4.0,10.0,39,0.00,,,0.00,weatherlink.com 1.10,2013-03-04 20:36:00,
2013-03-04 15:52:00,29.0,7.0,30.13,NNW,330,1.0,8.0,39,0.00,,,0.00,weatherlink.com 1.10,2013-03-04 20:52:00,
2013-03-04 16:07:00,29.3,6.0,30.13,NW,307,1.0,8.0,37,0.00,,,0.00,weatherlink.com 1.10,2013-03-04 21:07:00,
2013-03-04 16:22:00,29.4,7.0,30.14,West,281,6.0,6.0,38,0.00,,,0.00,weatherlink.com 1.10,2013-03-04 21:22:00,
2013-03-04 16:37:00,28.8,6.0,30.13,West,260,4.0,6.0,38,0.00,,,0.00,weatherlink.com 1.10,2013-03-04 21:37:00,
2013-03-04 16:52:00,28.5,6.0,30.14,West,265,2.0,9.0,38,0.00,,,0.00,weatherlink.com 1.10,2013-03-04 21:52:00,
2013-03-04 17:07:00,28.3,6.0,30.14,West,269,3.0,7.0,38,0.00,,,0.00,weatherlink.com 1.10,2013-03-04 22:07:00,
2013-03-04 17:22:00,28.1,5.0,30.14,NNW,347,4.0,8.0,38,0.00,,,0.00,weatherlink.com 1.10,2013-03-04 22:22:00,
2013-03-04 17:37:00,27.8,6.0,30.14,NW,318,3.0,9.0,40,0.00,,,0.00,weatherlink.com 1.10,2013-03-04 22:37:00,
2013-03-04 17:52:00,26.9,7.0,30.14,NW,322,1.0,6.0,43,0.00,,,0.00,weatherlink.com 1.10,2013-03-04 22:52:00,
2013-03-04 18:07:00,25.5,8.0,30.15,NW,309,3.0,7.0,47,0.00,,,0.00,weatherlink.com 1.10,2013-03-04 23:07:00,
2013-03-04 18:22:00,24.2,8.0,30.15,WNW,302,2.0,6.0,51,0.00,,,0.00,weatherlink.com 1.10,2013-03-04 23:22:00,
2013-03-04 18:53:00,21.7,8.0,30.16,West,268,0.0,6.0,56,0.00,,,0.00,weatherlink.com 1.10,2013-03-04 23:53:00,
2013-03-04 19:08:00,20.9,7.0,30.16,NW,326,2.0,5.0,56,0.00,,,0.00,weatherlink.com 1.10,2013-03-05 00:08:00,
2013-03-04 19:23:00,20.8,7.0,30.16,West,281,3.0,6.0,56,0.00,,,0.00,weatherlink.com 1.10,2013-03-05 00:23:00,
2013-03-04 19:38:00,20.1,8.0,30.17,NW,305,2.0,6.0,60,0.00,,,0.00,weatherlink.com 1.10,2013-03-05 00:38:00,
2013-03-04 19:53:00,20.0,9.0,30.17,WNW,285,2.0,7.0,62,0.00,,,0.00,weatherlink.com 1.10,2013-03-05 00:53:00,
2013-03-04 20:08:00,20.1,10.0,30.17,NW,312,0.0,7.0,64,0.00,,,0.00,weatherlink.com 1.10,2013-03-05 01:08:00,
2013-03-04 20:23:00,20.2,10.0,30.17,NW,321,0.0,6.0,65,0.00,,,0.00,weatherlink.com 1.10,2013-03-05 01:23:00,
2013-03-04 20:38:00,20.1,10.0,30.17,NW,318,1.0,6.0,66,0.00,,,0.00,weatherlink.com 1.10,2013-03-05 01:38:00,
2013-03-04 20:53:00,19.7,10.0,30.17,NW,312,1.0,7.0,67,0.00,,,0.00,weatherlink.com 1.10,2013-03-05 01:53:00,
2013-03-04 21:08:00,19.0,10.0,30.18,NW,316,1.0,6.0,69,0.00,,,0.00,weatherlink.com 1.10,2013-03-05 02:08:00,
2013-03-04 21:38:00,18.1,11.0,30.17,NW,323,3.0,4.0,73,0.00,,,0.00,weatherlink.com 1.10,2013-03-05 02:38:00,
2013-03-04 21:53:00,17.6,11.0,30.17,NW,312,1.0,5.0,75,0.00,,,0.00,weatherlink.com 1.10,2013-03-05 02:53:00,
2013-03-04 22:08:00,16.7,11.0,30.18,NW,307,0.0,2.0,77,0.00,,,0.00,weatherlink.com 1.10,2013-03-05 03:08:00,
2013-03-04 22:24:00,16.3,11.0,30.18,WNW,285,1.0,3.0,79,0.00,,,0.00,weatherlink.com 1.10,2013-03-05 03:24:00,
2013-03-04 22:39:00,14.6,9.0,30.18,West,259,0.0,1.0,79,0.00,,,0.00,weatherlink.com 1.10,2013-03-05 03:39:00,
2013-03-04 22:54:00,13.9,10.0,30.18,WNW,292,1.0,3.0,84,0.00,,,0.00,weatherlink.com 1.10,2013-03-05 03:54:00,
2013-03-04 23:09:00,14.5,10.0,30.18,WNW,302,0.0,3.0,83,0.00,,,0.00,weatherlink.com 1.10,2013-03-05 04:09:00,
2013-03-04 23:24:00,14.5,10.0,30.18,NW,322,0.0,2.0,82,0.00,,,0.00,weatherlink.com 1.10,2013-03-05 04:24:00,
2013-03-04 23:39:00,13.2,9.0,30.18,NW,305,0.0,1.0,83,0.00,,,0.00,weatherlink.com 1.10,2013-03-05 04:39:00,
2013-03-04 23:54:00,12.1,9.0,30.18,NNW,330,1.0,1.0,85,0.00,,,0.00,weatherlink.com 1.10,2013-03-05 04:54:00,